createdAt,value
2022-12-27T00:00:37.259Z,53.88
2022-12-27T00:03:04.243Z,53.70
2022-12-27T00:05:31.085Z,53.93
2022-12-27T00:07:57.979Z,53.55
2022-12-27T00:10:24.746Z,53.43
2022-12-27T00:12:51.562Z,53.02
2022-12-27T00:15:18.479Z,53.19
2022-12-27T00:17:45.236Z,52.94
2022-12-27T00:20:12.270Z,53.10
2022-12-27T00:22:40.123Z,52.71
2022-12-27T00:25:07.587Z,52.86
2022-12-27T00:27:34.360Z,52.61
2022-12-27T00:30:01.358Z,52.71
2022-12-27T00:32:28.153Z,52.66
2022-12-27T00:34:54.897Z,52.73
2022-12-27T00:37:21.926Z,52.40
2022-12-27T00:39:48.741Z,52.47
2022-12-27T00:42:15.881Z,52.47
2022-12-27T00:44:43.365Z,52.29
2022-12-27T00:47:11.762Z,52.09
2022-12-27T00:49:38.592Z,52.27
2022-12-27T00:52:05.445Z,51.96
2022-12-27T00:54:32.338Z,52.17
2022-12-27T00:56:59.096Z,51.85
2022-12-27T00:59:25.946Z,51.93
2022-12-27T01:01:53.317Z,52.04
2022-12-27T01:04:20.222Z,51.59
2022-12-27T01:06:47.040Z,51.76
2022-12-27T01:09:13.806Z,51.80
2022-12-27T01:11:41.599Z,51.76
2022-12-27T01:14:12.818Z,51.54
2022-12-27T01:16:40.438Z,51.75
2022-12-27T01:19:07.228Z,51.53
2022-12-27T01:21:34.166Z,51.96
2022-12-27T01:24:01.088Z,51.57
2022-12-27T01:26:28.017Z,51.67
2022-12-27T01:28:54.969Z,51.65
2022-12-27T01:31:25.796Z,52.02
2022-12-27T01:34:00.607Z,51.66
2022-12-27T01:36:30.012Z,51.75
2022-12-27T01:38:58.710Z,51.57
2022-12-27T01:41:54.650Z,51.76
2022-12-27T01:44:39.864Z,51.79
2022-12-27T01:47:12.388Z,51.84
2022-12-27T01:49:42.463Z,51.85
2022-12-27T01:52:11.017Z,51.33
2022-12-27T01:54:38.020Z,51.54
2022-12-27T01:57:05.637Z,51.63
2022-12-27T01:59:34.171Z,51.46
2022-12-27T02:02:01.351Z,51.31
2022-12-27T02:04:31.285Z,51.14
2022-12-27T02:06:59.567Z,51.45
2022-12-27T02:09:49.488Z,51.62
2022-12-27T02:12:16.974Z,51.36
2022-12-27T02:14:49.009Z,51.07
2022-12-27T02:17:36.049Z,51.32
2022-12-27T02:20:23.287Z,51.78
2022-12-27T02:23:17.667Z,51.66
2022-12-27T02:26:08.505Z,51.84
2022-12-27T02:29:04.008Z,51.94
2022-12-27T02:31:54.810Z,51.84
2022-12-27T02:35:09.921Z,51.86
2022-12-27T02:37:44.937Z,51.34
2022-12-27T02:40:33.641Z,51.66
2022-12-27T02:43:19.418Z,51.77
2022-12-27T02:46:21.243Z,51.28
2022-12-27T02:49:15.761Z,51.43
2022-12-27T02:52:27.635Z,51.64
2022-12-27T02:55:10.425Z,51.35
2022-12-27T02:58:13.885Z,51.50
2022-12-27T03:01:46.363Z,51.37
2022-12-27T03:04:38.639Z,51.33
2022-12-27T03:07:16.766Z,51.71
2022-12-27T03:10:31.822Z,51.80
2022-12-27T03:13:46.825Z,51.77
2022-12-27T03:16:30.322Z,52.07
2022-12-27T03:19:38.795Z,52.14
2022-12-27T03:22:26.187Z,51.60
2022-12-27T03:25:13.146Z,51.67
2022-12-27T03:27:43.218Z,51.61
2022-12-27T03:30:29.962Z,51.71
2022-12-27T03:33:14.102Z,51.92
2022-12-27T03:36:12.789Z,51.81
2022-12-27T03:38:51.245Z,51.57
2022-12-27T03:41:49.696Z,51.88
2022-12-27T03:44:26.145Z,51.81
2022-12-27T03:46:58.294Z,51.52
2022-12-27T03:49:41.619Z,51.56
2022-12-27T03:52:28.061Z,51.66
2022-12-27T03:54:55.780Z,51.60
2022-12-27T03:57:27.706Z,51.83
2022-12-27T03:59:54.789Z,51.68
2022-12-27T04:02:21.946Z,51.56
2022-12-27T04:04:50.069Z,51.88
2022-12-27T04:07:17.014Z,51.64
2022-12-27T04:10:03.012Z,51.26
2022-12-27T04:12:48.034Z,51.49
2022-12-27T04:15:33.490Z,51.55
2022-12-27T04:18:19.047Z,51.66
2022-12-27T04:21:04.164Z,51.76
2022-12-27T04:23:49.327Z,51.72
2022-12-27T04:26:34.520Z,51.36
2022-12-27T04:29:19.715Z,51.68
2022-12-27T04:32:04.709Z,51.69
2022-12-27T04:34:46.429Z,51.75
2022-12-27T04:37:17.331Z,51.53
2022-12-27T04:40:04.381Z,51.35
2022-12-27T04:42:50.030Z,51.53
2022-12-27T04:45:35.346Z,51.74
2022-12-27T04:48:21.023Z,51.32
2022-12-27T04:51:06.167Z,51.58
2022-12-27T04:53:51.769Z,51.68
2022-12-27T04:56:18.520Z,51.81
2022-12-27T04:59:05.225Z,51.27
2022-12-27T05:01:51.097Z,51.31
2022-12-27T05:04:17.955Z,51.17
2022-12-27T05:06:44.897Z,51.45
2022-12-27T05:09:30.578Z,51.51
2022-12-27T05:12:15.803Z,51.25
2022-12-27T05:14:42.601Z,51.05
2022-12-27T05:17:09.365Z,51.19
2022-12-27T05:19:36.173Z,51.33
2022-12-27T05:22:21.292Z,51.37
2022-12-27T05:25:06.552Z,51.39
2022-12-27T05:27:33.321Z,51.22
2022-12-27T05:30:00.111Z,51.21
2022-12-27T05:32:26.871Z,51.45
2022-12-27T05:34:53.670Z,51.41
2022-12-27T05:37:20.453Z,51.43
2022-12-27T05:39:47.240Z,51.60
2022-12-27T05:42:14.092Z,51.42
2022-12-27T05:44:40.953Z,51.80
2022-12-27T05:47:07.861Z,51.63
2022-12-27T05:49:34.912Z,51.56
2022-12-27T05:52:01.690Z,51.44
2022-12-27T05:54:28.453Z,52.01
2022-12-27T05:56:55.457Z,51.78
2022-12-27T05:59:23.570Z,51.94
2022-12-27T06:01:51.613Z,51.97
2022-12-27T06:04:18.587Z,52.01
2022-12-27T06:06:45.374Z,51.94
2022-12-27T06:09:12.408Z,52.06
2022-12-27T06:11:39.201Z,51.90
2022-12-27T06:14:05.972Z,51.79
2022-12-27T06:16:32.816Z,51.95
2022-12-27T06:18:59.675Z,51.81
2022-12-27T06:21:26.761Z,51.93
2022-12-27T06:23:53.553Z,52.08
2022-12-27T06:26:24.161Z,52.28
2022-12-27T06:28:51.969Z,52.06
2022-12-27T06:31:20.529Z,52.21
2022-12-27T06:33:48.985Z,52.10
2022-12-27T06:36:20.714Z,52.33
2022-12-27T06:38:47.897Z,52.36
2022-12-27T06:41:17.758Z,52.51
2022-12-27T06:43:45.001Z,52.39
2022-12-27T06:46:17.912Z,52.15
2022-12-27T06:48:46.889Z,52.36
2022-12-27T06:51:16.168Z,52.56
2022-12-27T06:53:49.235Z,52.52
2022-12-27T06:56:21.809Z,52.69
2022-12-27T06:58:50.571Z,52.76
2022-12-27T07:01:22.386Z,52.73
2022-12-27T07:03:56.209Z,52.74
2022-12-27T07:06:25.554Z,52.79
2022-12-27T07:08:53.235Z,52.79
2022-12-27T07:11:21.565Z,52.94
2022-12-27T07:13:53.169Z,52.82
2022-12-27T07:16:26.852Z,52.66
2022-12-27T07:18:55.976Z,52.46
2022-12-27T07:21:25.674Z,52.59
2022-12-27T07:23:52.950Z,52.77
2022-12-27T07:26:25.854Z,52.54
2022-12-27T07:28:58.790Z,52.74
2022-12-27T07:31:30.081Z,52.37
2022-12-27T07:33:58.177Z,52.52
2022-12-27T07:36:30.309Z,52.55
2022-12-27T07:38:58.119Z,52.53
2022-12-27T07:41:24.977Z,52.45
2022-12-27T07:43:53.248Z,52.59
2022-12-27T07:46:23.270Z,52.72
2022-12-27T07:48:50.523Z,52.45
2022-12-27T07:51:18.971Z,52.59
2022-12-27T07:53:49.249Z,52.54
2022-12-27T07:56:26.229Z,52.42
2022-12-27T07:58:55.953Z,52.22
2022-12-27T08:01:25.538Z,52.46
2022-12-27T08:03:52.402Z,52.30
2022-12-27T08:06:33.064Z,52.51
2022-12-27T08:09:06.718Z,52.62
2022-12-27T08:11:33.504Z,52.66
2022-12-27T08:14:00.269Z,52.72
2022-12-27T08:16:27.307Z,52.43
2022-12-27T08:18:54.334Z,52.67
2022-12-27T08:21:21.267Z,52.65
2022-12-27T08:23:48.098Z,52.57
2022-12-27T08:26:15.518Z,52.64
2022-12-27T08:28:42.446Z,52.47
2022-12-27T08:31:11.860Z,52.76
2022-12-27T08:33:41.394Z,52.70
2022-12-27T08:36:36.850Z,52.94
2022-12-27T08:38:57.740Z,52.53
2022-12-27T08:41:24.503Z,52.82
2022-12-27T08:43:51.347Z,53.01
2022-12-27T08:46:20.859Z,53.13
2022-12-27T08:48:48.738Z,53.28
2022-12-27T08:51:23.877Z,52.75
2022-12-27T08:53:57.311Z,52.93
2022-12-27T08:56:25.035Z,52.90
2022-12-27T08:58:51.928Z,52.79
2022-12-27T09:01:19.310Z,53.29
2022-12-27T09:03:46.483Z,53.02
2022-12-27T09:06:19.914Z,52.99
2022-12-27T09:08:49.122Z,52.96
2022-12-27T09:11:18.114Z,53.04
2022-12-27T09:13:45.139Z,53.08
2022-12-27T09:16:15.562Z,53.06
2022-12-27T09:18:43.506Z,52.91
2022-12-27T09:21:14.246Z,52.75
2022-12-27T09:23:41.654Z,52.75
2022-12-27T09:26:24.139Z,53.16
2022-12-27T09:28:51.097Z,52.98
2022-12-27T09:31:19.753Z,52.98
2022-12-27T09:33:46.864Z,53.03
2022-12-27T09:36:20.303Z,52.98
2022-12-27T09:38:48.019Z,53.10
2022-12-27T09:44:36.832Z,52.83
2022-12-27T09:47:20.571Z,52.59
2022-12-27T09:50:05.980Z,52.73
2022-12-27T09:52:43.954Z,52.90
2022-12-27T09:55:32.227Z,52.88
2022-12-27T09:58:13.195Z,52.78
2022-12-27T10:00:45.906Z,52.97
2022-12-27T10:03:13.035Z,53.07
2022-12-27T10:05:42.288Z,53.21
2022-12-27T10:08:42.252Z,53.35
2022-12-27T10:11:38.636Z,53.43
2022-12-27T10:14:38.315Z,53.62
2022-12-27T10:17:28.134Z,53.38
2022-12-27T10:20:11.893Z,54.17
2022-12-27T10:22:54.736Z,53.33
2022-12-27T10:25:24.525Z,53.04
2022-12-27T10:27:59.854Z,52.72
2022-12-27T10:30:30.029Z,52.11
2022-12-27T10:32:56.838Z,51.73
2022-12-27T10:35:26.061Z,51.69
2022-12-27T10:37:53.948Z,51.69
2022-12-27T10:40:51.375Z,51.24
2022-12-27T10:43:33.728Z,51.02
2022-12-27T10:46:32.252Z,50.95
2022-12-27T10:49:23.000Z,50.79
2022-12-27T10:51:52.958Z,50.73
2022-12-27T10:54:29.691Z,50.38
2022-12-27T10:57:15.979Z,50.38
2022-12-27T10:59:42.857Z,50.06
2022-12-27T11:02:19.261Z,49.37
2022-12-27T11:05:00.809Z,49.13
2022-12-27T11:07:33.665Z,48.62
2022-12-27T11:10:16.479Z,48.64
2022-12-27T11:13:06.804Z,47.92
2022-12-27T11:15:40.833Z,47.61
2022-12-27T11:18:18.342Z,47.15
2022-12-27T11:20:51.542Z,46.95
2022-12-27T11:23:21.754Z,46.92
2022-12-27T11:26:04.454Z,47.21
2022-12-27T11:28:42.225Z,47.08
2022-12-27T11:31:19.213Z,47.01
2022-12-27T11:33:56.174Z,47.16
2022-12-27T11:36:38.217Z,46.70
2022-12-27T11:39:05.529Z,46.71
2022-12-27T11:41:44.506Z,46.02
2022-12-27T11:45:08.893Z,46.36
2022-12-27T11:47:49.733Z,46.17
2022-12-27T11:50:28.392Z,46.49
2022-12-27T11:53:11.112Z,46.28
2022-12-27T11:56:05.189Z,45.08
2022-12-27T11:58:43.396Z,44.67
2022-12-27T12:01:52.949Z,44.01
2022-12-27T12:05:14.209Z,43.55
2022-12-27T12:08:03.004Z,42.99
2022-12-27T12:10:40.400Z,42.74
2022-12-27T12:13:38.722Z,42.90
2022-12-27T12:16:55.510Z,42.95
2022-12-27T12:19:36.189Z,42.62
2022-12-27T12:22:30.024Z,42.73
2022-12-27T12:25:37.569Z,43.17
2022-12-27T12:28:55.669Z,42.71
2022-12-27T12:32:09.747Z,43.12
2022-12-27T12:34:57.121Z,43.05
2022-12-27T12:37:35.845Z,42.91
2022-12-27T12:40:33.288Z,43.48
2022-12-27T12:43:16.915Z,42.87
2022-12-27T12:45:52.945Z,43.33
2022-12-27T12:48:50.331Z,42.86
2022-12-27T12:51:58.714Z,43.01
2022-12-27T12:55:09.696Z,42.97
2022-12-27T12:57:45.797Z,43.08
2022-12-27T13:00:43.043Z,42.97
2022-12-27T13:03:46.055Z,43.37
2022-12-27T13:07:12.942Z,43.71
2022-12-27T13:10:34.401Z,43.65
2022-12-27T13:13:26.402Z,43.42
2022-12-27T13:16:14.692Z,43.72
2022-12-27T13:19:38.071Z,43.88
2022-12-27T13:22:40.665Z,44.00
2022-12-27T13:25:39.548Z,43.86
2022-12-27T13:28:31.156Z,44.17
2022-12-27T13:31:30.801Z,44.30
2022-12-27T13:34:28.251Z,44.22
2022-12-27T13:37:35.914Z,44.47
2022-12-27T13:40:41.159Z,44.43
2022-12-27T13:43:48.571Z,44.57
2022-12-27T13:46:23.658Z,44.34
2022-12-27T13:49:07.720Z,44.18
2022-12-27T13:51:48.460Z,44.02
2022-12-27T13:54:45.551Z,44.05
2022-12-27T13:57:51.488Z,43.95
2022-12-27T14:00:21.462Z,44.11
2022-12-27T14:03:26.771Z,44.58
2022-12-27T14:05:56.213Z,44.39
2022-12-27T14:09:04.850Z,44.77
2022-12-27T14:12:25.643Z,44.42
2022-12-27T14:14:57.539Z,44.52
2022-12-27T14:18:12.528Z,44.44
2022-12-27T14:21:27.762Z,44.33
2022-12-27T14:24:23.001Z,44.20
2022-12-27T14:27:08.287Z,44.22
2022-12-27T14:30:21.742Z,44.12
2022-12-27T14:33:10.090Z,43.97
2022-12-27T14:36:17.059Z,43.96
2022-12-27T14:39:08.159Z,44.10
2022-12-27T14:41:59.555Z,44.15
2022-12-27T14:45:00.332Z,44.17
2022-12-27T14:48:07.781Z,44.31
2022-12-27T14:50:56.147Z,44.09
2022-12-27T14:54:02.943Z,44.36
2022-12-27T14:57:10.466Z,44.48
2022-12-27T15:00:04.587Z,44.47
2022-12-27T15:02:48.702Z,44.61
2022-12-27T15:05:42.856Z,44.70
2022-12-27T15:08:50.868Z,44.72
2022-12-27T15:12:06.051Z,44.85
2022-12-27T15:15:01.877Z,45.05
2022-12-27T15:17:59.159Z,45.03
2022-12-27T15:21:07.405Z,45.30
2022-12-27T15:24:03.082Z,45.34
2022-12-27T15:26:58.337Z,45.51
2022-12-27T15:29:40.454Z,45.66
2022-12-27T15:32:27.813Z,45.57
2022-12-27T15:35:25.331Z,45.73
2022-12-27T15:38:16.553Z,45.80
2022-12-27T15:41:04.942Z,46.09
2022-12-27T15:43:57.665Z,45.85
2022-12-27T15:46:50.690Z,45.97
2022-12-27T15:49:57.673Z,46.30
2022-12-27T15:52:48.752Z,46.48
2022-12-27T15:55:30.099Z,46.58
2022-12-27T15:58:19.803Z,46.63
2022-12-27T16:01:28.815Z,46.57
2022-12-27T16:03:58.341Z,46.63
2022-12-27T16:06:34.321Z,46.60
2022-12-27T16:09:24.392Z,46.16
2022-12-27T16:12:01.991Z,46.60
2022-12-27T16:14:40.837Z,46.44
2022-12-27T16:17:55.463Z,46.87
2022-12-27T16:20:23.545Z,46.10
2022-12-27T16:22:59.184Z,46.14
2022-12-27T16:25:35.916Z,46.56
2022-12-27T16:28:09.644Z,45.97
2022-12-27T16:30:59.231Z,46.30
2022-12-27T16:33:25.934Z,46.10
2022-12-27T16:36:24.812Z,46.26
2022-12-27T16:39:19.315Z,46.51
2022-12-27T16:42:02.584Z,46.40
2022-12-27T16:44:53.792Z,46.31
2022-12-27T16:47:41.370Z,46.71
2022-12-27T16:50:57.697Z,46.70
2022-12-27T16:53:45.046Z,46.63
2022-12-27T16:56:28.043Z,46.63
2022-12-27T16:58:54.847Z,46.30
2022-12-27T17:01:50.466Z,46.77
2022-12-27T17:04:58.361Z,46.81
2022-12-27T17:07:55.050Z,46.78
2022-12-27T17:10:27.949Z,46.63
2022-12-27T17:13:17.048Z,47.06
2022-12-27T17:15:54.542Z,47.04
2022-12-27T17:18:59.315Z,46.71
2022-12-27T17:21:38.707Z,46.75
2022-12-27T17:24:18.486Z,46.91
2022-12-27T17:27:16.614Z,47.01
2022-12-27T17:30:05.876Z,46.77
2022-12-27T17:33:13.972Z,47.23
2022-12-27T17:35:57.900Z,47.29
2022-12-27T17:38:41.285Z,47.27
2022-12-27T17:42:09.196Z,47.88
2022-12-27T17:45:12.875Z,47.87
2022-12-27T17:48:26.354Z,47.75
2022-12-27T17:50:59.805Z,47.75
2022-12-27T17:53:45.085Z,47.81
2022-12-27T17:56:36.353Z,47.91
2022-12-27T17:59:25.503Z,47.99
2022-12-27T18:02:16.280Z,48.27
2022-12-27T18:04:53.287Z,47.85
2022-12-27T18:07:26.892Z,47.84
2022-12-27T18:09:58.710Z,48.08
2022-12-27T18:12:39.992Z,47.78
2022-12-27T18:15:17.055Z,47.72
2022-12-27T18:17:55.653Z,48.14
2022-12-27T18:20:28.537Z,47.79
2022-12-27T18:23:01.318Z,47.88
2022-12-27T18:25:45.047Z,48.06
2022-12-27T18:28:32.650Z,48.33
2022-12-27T18:31:21.960Z,48.63
2022-12-27T18:33:57.093Z,48.59
2022-12-27T18:36:31.761Z,48.45
2022-12-27T18:39:10.367Z,48.93
2022-12-27T18:41:48.961Z,48.76
2022-12-27T18:44:26.835Z,48.66
2022-12-27T18:46:57.891Z,48.86
2022-12-27T18:49:34.369Z,48.99
2022-12-27T18:52:03.317Z,49.03
2022-12-27T18:54:32.144Z,48.59
2022-12-27T18:57:03.736Z,49.13
2022-12-27T18:59:36.812Z,48.79
2022-12-27T19:02:35.437Z,49.18
2022-12-27T19:05:19.993Z,49.43
2022-12-27T19:08:10.871Z,49.43
2022-12-27T19:10:40.101Z,49.49
2022-12-27T19:13:18.792Z,49.41
2022-12-27T19:15:46.312Z,49.23
2022-12-27T19:18:27.365Z,49.45
2022-12-27T19:21:01.320Z,49.39
2022-12-27T19:23:38.468Z,49.25
2022-12-27T19:26:28.900Z,49.51
2022-12-27T19:29:21.940Z,49.13
2022-12-27T19:32:07.121Z,49.58
2022-12-27T19:34:44.406Z,49.35
2022-12-27T19:37:11.379Z,49.47
2022-12-27T19:39:40.243Z,49.31
2022-12-27T19:42:14.215Z,49.45
2022-12-27T19:44:41.002Z,49.40
2022-12-27T19:47:14.295Z,49.58
2022-12-27T19:49:42.736Z,49.56
2022-12-27T19:52:19.539Z,49.14
2022-12-27T19:54:47.680Z,49.36
2022-12-27T19:57:14.910Z,49.27
2022-12-27T19:59:41.747Z,49.25
2022-12-27T20:02:09.216Z,49.28
2022-12-27T20:04:36.381Z,49.34
2022-12-27T20:07:03.589Z,49.22
2022-12-27T20:09:30.436Z,49.31
2022-12-27T20:11:57.434Z,49.29
2022-12-27T20:14:24.282Z,49.39
2022-12-27T20:16:52.143Z,49.45
2022-12-27T20:19:20.112Z,49.31
2022-12-27T20:21:47.060Z,49.53
2022-12-27T20:24:14.005Z,49.53
2022-12-27T20:26:42.020Z,49.70
2022-12-27T20:29:09.932Z,49.45
2022-12-27T20:31:44.222Z,49.54
2022-12-27T20:34:12.419Z,49.87
2022-12-27T20:36:39.325Z,49.77
2022-12-27T20:39:07.530Z,49.50
2022-12-27T20:41:34.631Z,49.92
2022-12-27T20:44:01.734Z,49.44
2022-12-27T20:46:28.920Z,49.70
2022-12-27T20:48:56.818Z,49.86
2022-12-27T20:51:31.561Z,49.89
2022-12-27T20:54:01.330Z,49.95
2022-12-27T20:56:28.284Z,49.92
2022-12-27T20:58:55.233Z,49.69
2022-12-27T21:01:25.986Z,49.92
2022-12-27T21:03:55.900Z,49.82
2022-12-27T21:06:28.114Z,49.92
2022-12-27T21:08:57.781Z,49.72
2022-12-27T21:11:32.691Z,49.83
2022-12-27T21:14:05.718Z,49.87
2022-12-27T21:16:34.981Z,49.86
2022-12-27T21:19:03.573Z,49.98
2022-12-27T21:21:32.158Z,50.01
2022-12-27T21:24:00.144Z,50.08
2022-12-27T21:26:31.082Z,50.15
2022-12-27T21:29:00.149Z,49.94
2022-12-27T21:31:27.475Z,50.09
2022-12-27T21:33:54.550Z,50.03
2022-12-27T21:36:24.845Z,50.10
2022-12-27T21:38:52.524Z,50.15
2022-12-27T21:41:23.373Z,50.26
2022-12-27T21:43:51.175Z,50.02
2022-12-27T21:46:27.457Z,50.16
2022-12-27T21:48:57.277Z,49.98
2022-12-27T21:51:24.985Z,50.08
2022-12-27T21:53:52.435Z,50.22
2022-12-27T21:56:20.021Z,50.26
2022-12-27T21:58:47.261Z,50.36
2022-12-27T22:01:20.693Z,50.15
2022-12-27T22:03:51.653Z,50.43
2022-12-27T22:06:26.294Z,50.09
2022-12-27T22:09:02.116Z,50.16
2022-12-27T22:11:30.663Z,50.22
2022-12-27T22:13:57.648Z,50.19
2022-12-27T22:16:33.805Z,50.10
2022-12-27T22:19:01.776Z,50.08
2022-12-27T22:21:34.980Z,50.17
2022-12-27T22:24:02.899Z,49.93
2022-12-27T22:26:37.154Z,50.18
2022-12-27T22:29:05.187Z,50.22
2022-12-27T22:31:37.841Z,50.19
2022-12-27T22:34:06.193Z,50.12
2022-12-27T22:36:33.887Z,50.73
2022-12-27T22:39:01.488Z,50.68
2022-12-27T22:41:31.397Z,50.83
2022-12-27T22:44:08.273Z,51.12
2022-12-27T22:47:24.084Z,51.19
2022-12-27T22:49:22.679Z,51.26
2022-12-27T22:51:49.481Z,51.45
2022-12-27T22:54:16.286Z,51.52
2022-12-27T22:56:43.129Z,51.42
2022-12-27T22:59:12.633Z,51.67
2022-12-27T23:01:41.172Z,51.58
2022-12-27T23:04:11.848Z,51.56
2022-12-27T23:06:40.135Z,51.73
2022-12-27T23:09:07.963Z,51.32
2022-12-27T23:11:38.083Z,51.74
2022-12-27T23:14:16.255Z,51.65
2022-12-27T23:16:46.300Z,51.79
2022-12-27T23:19:16.191Z,51.75
2022-12-27T23:21:43.163Z,51.67
2022-12-27T23:24:10.903Z,52.05
2022-12-27T23:26:38.521Z,51.88
2022-12-27T23:29:06.009Z,51.98
2022-12-27T23:31:33.366Z,52.15
2022-12-27T23:34:00.356Z,52.09
2022-12-27T23:36:27.221Z,52.04
2022-12-27T23:38:55.199Z,52.01
2022-12-27T23:41:24.395Z,51.75
2022-12-27T23:43:54.823Z,51.97
2022-12-27T23:46:31.470Z,52.03
2022-12-27T23:49:01.137Z,52.05
2022-12-27T23:51:29.588Z,52.18
2022-12-27T23:53:56.463Z,52.24
2022-12-27T23:56:29.367Z,52.13
2022-12-27T23:58:59.525Z,52.66
